Weather observations for the past three days for
Las Vegas, North Las Vegas Airport
Imperial (Metric)
Date Time (pdt) Wind (mph) Vis. (mi.) Weather Sky Cond. Temperature (ºF) Relative Humidity Wind Chill (°F) Heat Index (°F) Pressure Precipitation (in)
Air Dwpt 6 hour altimeter (in) sea level (mb) 1 hr 3 hr 6 hr
Max. Min.
01 17:53 SW 16 G 26 10.00 Fair CLR 93 28 10% 88 29.83 1009.2
01 16:53 SW 26 G 39 10.00 Fair and Windy CLR 95 21.9 96.1 90 7% 90 29.84 1009.1
01 15:53 SW 21 G 32 10.00 Fair and Breezy CLR 96.1 21.9 7% 91 29.85 1009.5
01 14:53 SW 20 G 30 10.00 Fair CLR 95 28 9% 90 29.86 1010.1
01 13:53 S 16 G 29 10.00 Fair CLR 93 30 10% 88 29.89 1010.8
01 12:53 S 16 G 30 10.00 Fair CLR 93 30 10% 88 29.91 1011.4
01 11:53 S 15 G 31 10.00 Fair CLR 91 39.9 17% 87 29.93 1012.1
01 10:53 S 21 G 29 10.00 Fair and Breezy CLR 90 44.1 90 77 20% 86 29.94 1012.5
01 09:53 S 14 10.00 Fair CLR 87.1 36 16% 84 29.94 1012.8
01 08:53 E 9 10.00 Fair CLR 84 32 15% 81 29.94 1012.9
01 07:53 S 7 10.00 Fair CLR 81 26.1 13% 79 29.94 1012.6
01 06:53 S 8 10.00 Fair CLR 78.1 30.9 18% 77 29.92 1012.2
01 05:53 S 3 10.00 Fair CLR 79 30 17% 78 29.92 1011.8
01 04:53 S 5 10.00 Fair CLR 81 30.9 89.1 78.1 16% 79 29.91 1011.5
01 03:53 E 8 10.00 Fair CLR 79 39.9 25% 78 29.91 1011.4
01 02:53 SE 7 10.00 Fair CLR 81 37 21% 79 29.9 1011.0
01 01:53 S 10 10.00 Fair CLR 84 32 15% 81 29.89 1010.7
01 00:53 S 7 10.00 Fair CLR 84 30.9 15% 81 29.88 1010.6
31 23:53 S 8 10.00 Fair CLR 87.1 28.9 12% 83 29.87 1010.1
31 22:53 S 17 10.00 Fair CLR 88 48 99 88 25% 85 29.85 1009.3
31 21:53 S 20 G 28 10.00 Fair CLR 89.1 53.1 29% 87 29.84 1009.1
31 18:53 SW 14 10.00 Fair CLR 95 39 14% 91 29.79 1007.5
31 17:53 SW 17 10.00 Fair CLR 98.1 37.9 12% 93 29.78 1007.3
31 16:53 S 13 10.00 Fair CLR 99 39 100 91.9 13% 94 29.79 1007.4
31 15:53 SW 17 G 23 10.00 Partly Cloudy SCT120 99 42.1 14% 95 29.79 1007.3
31 13:53 S 12 G 24 10.00 Partly Cloudy SCT110 98.1 43 15% 94 29.84 1009.2
31 12:53 S 13 G 25 10.00 Fair CLR 96.1 46.9 19% 92 29.87 1010.3
31 11:53 S 10 G 18 10.00 Fair CLR 93 48.9 22% 90 29.9 1011.2
31 10:53 SE 20 G 26 10.00 Fair CLR 93 46 93 75 20% 89 29.91 1011.3
31 09:53 SE 14 10.00 Fair CLR 90 46 22% 87 29.91 1011.4
31 08:53 SE 12 10.00 Fair CLR 87.1 45 23% 84 29.91 1011.6
31 07:53 E 6 10.00 Fair CLR 84 46 27% 82 29.9 1011.2
31 06:53 Calm 10.00 Fair CLR 78.1 45 31% 78 29.88 1010.6
31 05:53 NW 6 10.00 Fair CLR 77 46 33% 78 29.86 1010.0
31 04:53 W 5 10.00 Fair CLR 77 45 88 77 32% 78 29.85 1009.8
31 03:53 Calm 10.00 Fair CLR 80.1 44.1 28% 79 29.84 1009.3
31 02:53 N 3 10.00 Fair CLR 79 43 28% 78 29.83 1009.0
31 01:53 W 3 10.00 Fair CLR 81 42.1 25% 79 29.83 1008.8
31 00:53 N 7 10.00 Fair CLR 82 41 23% 80 29.83 1008.9
30 23:53 NW 6 10.00 Fair CLR 84 39.9 21% 81 29.83 1008.7
30 22:53 Calm 10.00 Fair CLR 88 39.9 97 84.9 18% 84 29.83 1008.5
30 21:53 W 3 10.00 Fair CLR 88 39.9 18% 84 29.83 1008.7
30 20:53 SW 5 10.00 Fair CLR 91 39 16% 87 29.82 1008.5
30 19:53 W 7 10.00 Fair CLR 93 37.9 14% 89 29.79 1007.4
30 18:53 W 12 10.00 Fair CLR 95 39 14% 91 29.79 1007.1
30 17:53 SW 10 10.00 Fair CLR 96.1 39 14% 92 29.79 1007.4
30 16:53 W 14 10.00 Fair CLR 97 39.9 98.1 93.9 14% 92 29.81 1007.8
30 15:53 W 14 G 25 10.00 Fair CLR 97 39.9 14% 92 29.82 1008.1
30 14:53 W 16 10.00 Fair CLR 98.1 41 14% 94 29.83 1008.5
30 13:53 SW 20 G 28 10.00 Fair CLR 98.1 41 14% 94 29.85 1009.3
30 12:53 S 16 10.00 Fair CLR 95 39.9 15% 91 29.87 1009.8
30 11:53 SW 14 G 22 10.00 Fair CLR 95 39.9 15% 91 29.88 1010.1
30 10:53 S 12 G 22 10.00 Fair CLR 95 39 95 87.1 14% 91 29.88 1010.3
30 09:53 S 13 10.00 Fair CLR 90 39.9 17% 86 29.88 1010.3
30 08:53 S 15 10.00 Fair CLR 89.1 39.9 18% 85 29.87 1010.0
30 07:53 S 18 10.00 Fair CLR 90 41 18% 86 29.86 1009.7
30 06:53 S 14 G 24 10.00 Fair CLR 88 43 21% 85 29.85 1009.2
30 05:53 SE 18 10.00 Fair CLR 87.1 45 23% 84 29.82 1008.3
30 04:53 SE 16 10.00 Fair CLR 87.1 46 93.9 87.1 24% 84 29.81 1007.9
30 03:53 S 14 G 21 10.00 Fair CLR 88 45 22% 85 29.8 1007.3
30 02:53 W 20 G 33 10.00 Fair CLR 91 39 16% 87 29.78 1006.6
30 01:53 SW 17 G 30 10.00 Fair CLR 91 41 17% 87 29.78 1006.7
30 00:53 W 22 G 32 10.00 Fair and Breezy CLR 91.9 42.1 18% 88 29.79 1006.8
29 23:53 SW 23 G 32 10.00 Fair and Breezy CLR 93 44.1 18% 89 29.79 1006.9
29 22:53 SW 21 G 29 10.00 Fair and Breezy CLR 93.9 45 102.9 93.9 18% 90 29.79 1006.9
29 21:53 SW 18 G 28 10.00 Fair CLR 95 46 19% 91 29.79 1007.1
29 20:53 SW 14 10.00 Fair CLR 96.1 46.9 19% 92 29.8 1007.3
29 19:53 SW 16 G 21 10.00 Fair CLR 98.1 46.9 17% 94 29.78 1006.7
29 18:53 SW 16 10.00 Fair CLR 100 46 16% 96 29.77 1006.3
Date Time (pdt) Wind (mph) Vis. (mi.) Weather Sky Cond. Air Dwpt Max. Min. Relative Humidity Wind Chill (°F) Heat Index (°F) altimeter (in) sea level (mb) 1 hr 3 hr 6 hr
6 hour
Temperature (ºF) Pressure Precipitation (in)